createdAt,value
2018-09-29T00:01:12.605Z,102011.47
2018-09-29T00:03:42.043Z,102004.08
2018-09-29T00:06:11.509Z,102007.57
2018-09-29T00:08:41.330Z,102010.81
2018-09-29T00:11:10.993Z,102011.29
2018-09-29T00:13:40.485Z,102013.83
2018-09-29T00:16:10.449Z,102021.48
2018-09-29T00:18:39.889Z,102027.99
2018-09-29T00:21:09.318Z,102028.69
2018-09-29T00:23:38.942Z,102024.17
2018-09-29T00:26:08.660Z,102022.20
2018-09-29T00:28:38.166Z,102022.85
2018-09-29T00:31:07.593Z,102030.39
2018-09-29T00:33:37.990Z,102035.06
2018-09-29T00:36:07.496Z,102037.66
2018-09-29T00:38:36.946Z,102033.66
2018-09-29T00:41:06.484Z,102030.37
2018-09-29T00:43:35.919Z,102037.56
2018-09-29T00:46:05.345Z,102043.48
2018-09-29T00:48:35.026Z,102041.91
2018-09-29T00:51:04.532Z,102046.57
2018-09-29T00:53:34.082Z,102043.83
2018-09-29T00:56:03.521Z,102044.45
2018-09-29T00:58:32.953Z,102048.62
2018-09-29T01:01:02.393Z,102048.41
2018-09-29T01:03:31.905Z,102049.94
2018-09-29T01:06:01.346Z,102058.09
2018-09-29T01:08:30.820Z,102058.09
2018-09-29T01:11:00.249Z,102059.05
2018-09-29T01:13:29.758Z,102056.78
2018-09-29T01:15:59.232Z,102057.95
2018-09-29T01:18:35.385Z,102047.19
2018-09-29T01:21:08.661Z,102050.91
2018-09-29T01:23:38.477Z,102044.34
2018-09-29T01:26:08.100Z,102041.66
2018-09-29T01:28:37.994Z,102038.78
2018-09-29T01:31:08.189Z,102043.24
2018-09-29T01:33:37.609Z,102043.44
2018-09-29T01:36:07.121Z,102044.66
2018-09-29T01:38:36.551Z,102037.91
2018-09-29T01:41:06.053Z,102038.72
2018-09-29T01:43:35.684Z,102046.44
2018-09-29T01:46:05.292Z,102052.80
2018-09-29T01:48:34.904Z,102061.16
2018-09-29T01:51:04.614Z,102056.14
2018-09-29T01:53:34.244Z,102055.66
2018-09-29T01:56:03.868Z,102057.37
2018-09-29T01:58:33.627Z,102067.84
2018-09-29T02:01:03.278Z,102067.65
2018-09-29T02:03:32.953Z,102073.92
2018-09-29T02:06:02.748Z,102073.70
2018-09-29T02:08:32.461Z,102070.02
2018-09-29T02:11:02.132Z,102067.12
2018-09-29T02:13:31.803Z,102066.89
2018-09-29T02:16:01.503Z,102055.82
2018-09-29T02:18:31.147Z,102064.02
2018-09-29T02:21:00.792Z,102061.91
2018-09-29T02:23:30.392Z,102065.03
2018-09-29T02:26:00.073Z,102063.73
2018-09-29T02:28:29.860Z,102069.70
2018-09-29T02:30:59.483Z,102066.21
2018-09-29T02:33:29.172Z,102080.01
2018-09-29T02:35:58.863Z,102075.22
2018-09-29T02:38:28.628Z,102073.59
2018-09-29T02:41:04.371Z,102077.01
2018-09-29T02:43:34.044Z,102085.61
2018-09-29T02:46:03.775Z,102081.31
2018-09-29T02:48:33.428Z,102088.13
2018-09-29T02:51:03.067Z,102084.08
2018-09-29T02:53:32.723Z,102092.36
2018-09-29T02:56:02.372Z,102093.42
2018-09-29T02:58:32.039Z,102095.82
2018-09-29T03:01:01.674Z,102098.91
2018-09-29T03:03:31.322Z,102087.67
2018-09-29T03:06:01.012Z,102096.76
2018-09-29T03:08:30.690Z,102097.73
2018-09-29T03:11:00.342Z,102096.72
2018-09-29T03:13:30.107Z,102096.23
2018-09-29T03:15:59.725Z,102095.67
2018-09-29T03:18:29.406Z,102091.20
2018-09-29T03:20:59.205Z,102096.73
2018-09-29T03:23:28.934Z,102100.95
2018-09-29T03:25:58.852Z,102105.25
2018-09-29T03:28:28.468Z,102100.27
2018-09-29T03:30:58.173Z,102104.89
2018-09-29T03:33:28.032Z,102106.44
2018-09-29T03:35:57.971Z,102105.88
2018-09-29T03:38:27.630Z,102109.20
2018-09-29T03:40:57.316Z,102115.28
2018-09-29T03:43:27.026Z,102112.56
2018-09-29T03:45:56.694Z,102117.19
2018-09-29T03:48:26.444Z,102111.27
2018-09-29T03:50:56.170Z,102119.30
2018-09-29T03:53:25.892Z,102118.69
2018-09-29T03:55:55.512Z,102124.61
2018-09-29T03:58:25.119Z,102116.73
2018-09-29T04:00:54.804Z,102126.14
2018-09-29T04:03:24.514Z,102125.33
2018-09-29T04:05:54.137Z,102123.55
2018-09-29T04:08:23.797Z,102127.84
2018-09-29T04:10:53.459Z,102131.81
2018-09-29T04:13:23.147Z,102136.60
2018-09-29T04:15:52.784Z,102137.81
2018-09-29T04:18:22.459Z,102138.47
2018-09-29T04:20:52.077Z,102140.17
2018-09-29T04:23:21.723Z,102144.33
2018-09-29T04:25:51.368Z,102144.89
2018-09-29T04:28:20.976Z,102150.23
2018-09-29T04:30:50.688Z,102155.53
2018-09-29T04:33:20.475Z,102155.11
2018-09-29T04:35:50.367Z,102163.47
2018-09-29T04:38:19.984Z,102163.45
2018-09-29T04:40:49.690Z,102161.44
2018-09-29T04:43:19.436Z,102165.48
2018-09-29T04:45:48.952Z,102155.42
2018-09-29T04:48:18.595Z,102153.64
2018-09-29T04:50:48.304Z,102153.38
2018-09-29T04:53:17.989Z,102154.54
2018-09-29T04:55:47.664Z,102154.77
2018-09-29T04:58:17.328Z,102158.13
2018-09-29T05:00:46.967Z,102156.75
2018-09-29T05:03:16.643Z,102160.93
2018-09-29T05:05:46.265Z,102172.10
2018-09-29T05:08:15.933Z,102163.69
2018-09-29T05:10:45.672Z,102171.15
2018-09-29T05:13:15.320Z,102178.83
2018-09-29T05:15:44.960Z,102173.19
2018-09-29T05:18:15.079Z,102176.35
2018-09-29T05:20:44.781Z,102177.38
2018-09-29T05:23:14.465Z,102171.07
2018-09-29T05:25:44.127Z,102171.16
2018-09-29T05:28:13.751Z,102162.16
2018-09-29T05:30:43.449Z,102173.68
2018-09-29T05:33:13.290Z,102167.58
2018-09-29T05:35:43.176Z,102171.09
2018-09-29T05:38:12.810Z,102186.97
2018-09-29T05:40:42.488Z,102183.12
2018-09-29T05:43:12.112Z,102181.58
2018-09-29T05:45:41.745Z,102174.80
2018-09-29T05:48:11.406Z,102181.58
2018-09-29T05:50:41.029Z,102175.54
2018-09-29T05:53:10.667Z,102174.72
2018-09-29T05:55:40.474Z,102179.85
2018-09-29T05:58:10.108Z,102173.68
2018-09-29T06:00:39.852Z,102179.02
2018-09-29T06:03:09.488Z,102177.97
2018-09-29T06:05:39.214Z,102182.95
2018-09-29T06:08:08.832Z,102184.27
2018-09-29T06:10:38.468Z,102180.55
2018-09-29T06:13:08.126Z,102177.01
2018-09-29T06:15:37.771Z,102168.93
2018-09-29T06:18:07.413Z,102165.14
2018-09-29T06:20:37.055Z,102168.41
2018-09-29T06:23:07.053Z,102172.41
2018-09-29T06:25:36.892Z,102174.62
2018-09-29T06:28:06.719Z,102181.62
2018-09-29T06:30:36.391Z,102185.94
2018-09-29T06:33:06.198Z,102191.58
2018-09-29T06:35:35.801Z,102196.63
2018-09-29T06:38:05.510Z,102200.82
2018-09-29T06:40:35.180Z,102203.54
2018-09-29T06:43:04.807Z,102207.58
2018-09-29T06:45:34.451Z,102204.88
2018-09-29T06:48:04.149Z,102213.47
2018-09-29T06:50:33.748Z,102213.33
2018-09-29T06:53:03.381Z,102219.20
2018-09-29T06:55:33.203Z,102219.39
2018-09-29T06:58:02.812Z,102220.11
2018-09-29T07:00:32.455Z,102227.61
2018-09-29T07:03:02.127Z,102223.13
2018-09-29T07:05:31.735Z,102224.33
2018-09-29T07:08:01.363Z,102218.11
2018-09-29T07:10:31.020Z,102216.75
2018-09-29T07:13:00.662Z,102212.09
2018-09-29T07:17:58.850Z,102213.47
2018-09-29T07:20:28.450Z,102214.19
2018-09-29T07:22:58.068Z,102212.19
2018-09-29T07:25:27.824Z,102212.78
2018-09-29T07:27:57.430Z,102214.17
2018-09-29T07:30:27.114Z,102214.52
2018-09-29T07:32:56.819Z,102223.43
2018-09-29T07:35:26.400Z,102226.19
2018-09-29T07:37:56.023Z,102225.05
2018-09-29T07:40:25.689Z,102220.39
2018-09-29T07:42:55.313Z,102226.98
2018-09-29T07:45:25.046Z,102215.11
2018-09-29T07:47:54.733Z,102219.33
2018-09-29T07:50:24.412Z,102217.19
2018-09-29T07:52:54.132Z,102213.73
2018-09-29T07:55:23.786Z,102212.94
2018-09-29T07:57:53.396Z,102210.27
2018-09-29T08:00:23.045Z,102216.09
2018-09-29T08:02:52.738Z,102213.74
2018-09-29T08:05:22.429Z,102212.52
2018-09-29T08:07:52.156Z,102204.32
2018-09-29T08:10:21.809Z,102214.66
2018-09-29T08:12:51.418Z,102218.12
2018-09-29T08:15:21.164Z,102218.67
2018-09-29T08:17:50.811Z,102222.72
2018-09-29T08:20:20.491Z,102224.92
2018-09-29T08:22:50.156Z,102226.20
2018-09-29T08:25:19.820Z,102217.78
2018-09-29T08:27:49.464Z,102222.11
2018-09-29T08:30:19.106Z,102219.64
2018-09-29T08:32:48.932Z,102215.33
2018-09-29T08:35:18.531Z,102222.02
2018-09-29T08:37:48.250Z,102218.23
2018-09-29T08:40:17.896Z,102212.64
2018-09-29T08:42:47.638Z,102214.73
2018-09-29T08:45:17.308Z,102219.77
2018-09-29T08:47:46.941Z,102217.36
2018-09-29T08:50:16.806Z,102224.58
2018-09-29T08:52:46.445Z,102225.58
2018-09-29T08:55:16.127Z,102216.58
2018-09-29T08:57:45.768Z,102228.07
2018-09-29T09:00:15.503Z,102226.66
2018-09-29T09:02:45.193Z,102218.84
2018-09-29T09:05:14.844Z,102223.14
2018-09-29T09:07:44.524Z,102220.37
2018-09-29T09:10:14.193Z,102223.55
2018-09-29T09:12:43.927Z,102221.39
2018-09-29T09:15:13.593Z,102213.56
2018-09-29T09:17:43.295Z,102226.75
2018-09-29T09:20:19.625Z,102225.00
2018-09-29T09:22:49.287Z,102225.59
2018-09-29T09:25:18.956Z,102227.92
2018-09-29T09:27:48.604Z,102222.80
2018-09-29T09:30:18.409Z,102225.67
2018-09-29T09:32:48.043Z,102218.95
2018-09-29T09:35:18.197Z,102220.38
2018-09-29T09:37:47.890Z,102226.20
2018-09-29T09:40:17.607Z,102218.34
2018-09-29T09:42:47.381Z,102214.41
2018-09-29T09:45:17.093Z,102220.83
2018-09-29T09:47:46.756Z,102216.70
2018-09-29T09:50:16.604Z,102222.53
2018-09-29T09:52:46.367Z,102222.12
2018-09-29T09:55:16.056Z,102221.14
2018-09-29T09:57:45.710Z,102220.02
2018-09-29T10:00:15.580Z,102218.75
2018-09-29T10:02:50.260Z,102223.65
2018-09-29T10:05:19.866Z,102216.68
2018-09-29T10:07:49.572Z,102220.30
2018-09-29T10:10:19.418Z,102216.61
2018-09-29T10:12:49.164Z,102217.40
2018-09-29T10:15:18.852Z,102215.44
2018-09-29T10:17:48.499Z,102219.11
2018-09-29T10:20:18.268Z,102219.11
2018-09-29T10:22:47.947Z,102216.05
2018-09-29T10:25:17.777Z,102217.09
2018-09-29T10:27:47.456Z,102223.36
2018-09-29T10:30:17.065Z,102222.01
2018-09-29T10:32:46.772Z,102218.62
2018-09-29T10:35:16.425Z,102217.58
2018-09-29T10:37:46.076Z,102217.69
2018-09-29T10:40:15.824Z,102216.17
2018-09-29T10:42:45.496Z,102204.68
2018-09-29T10:45:15.145Z,102201.14
2018-09-29T10:47:44.964Z,102200.06
2018-09-29T10:50:14.624Z,102195.86
2018-09-29T10:52:44.440Z,102200.45
2018-09-29T10:55:14.238Z,102200.39
2018-09-29T10:57:43.871Z,102195.19
2018-09-29T11:00:13.539Z,102193.48
2018-09-29T11:02:43.355Z,102191.80
2018-09-29T11:05:12.996Z,102191.15
2018-09-29T11:07:42.647Z,102183.69
2018-09-29T11:10:12.323Z,102182.30
2018-09-29T11:12:41.947Z,102178.08
2018-09-29T11:15:11.627Z,102173.72
2018-09-29T11:17:41.330Z,102168.41
2018-09-29T11:20:10.981Z,102171.92
2018-09-29T11:22:40.703Z,102165.27
2018-09-29T11:25:10.691Z,102157.31
2018-09-29T11:27:40.348Z,102163.88
2018-09-29T11:30:10.004Z,102157.24
2018-09-29T11:32:39.639Z,102150.60
2018-09-29T11:35:09.347Z,102140.86
2018-09-29T11:37:39.081Z,102139.08
2018-09-29T11:40:08.739Z,102139.05
2018-09-29T11:42:38.424Z,102135.37
2018-09-29T11:45:08.096Z,102134.80
2018-09-29T11:47:37.799Z,102134.36
2018-09-29T11:50:08.055Z,102133.83
2018-09-29T11:52:37.709Z,102126.21
2018-09-29T11:55:07.484Z,102139.31
2018-09-29T11:57:37.090Z,102128.27
2018-09-29T12:00:07.590Z,102126.36
2018-09-29T12:02:37.500Z,102124.97
2018-09-29T12:05:07.189Z,102124.50
2018-09-29T12:07:36.884Z,102112.69
2018-09-29T12:10:06.864Z,102109.62
2018-09-29T12:12:36.680Z,102106.98
2018-09-29T12:15:06.483Z,102103.09
2018-09-29T12:17:36.148Z,102106.59
2018-09-29T12:20:06.064Z,102098.23
2018-09-29T12:22:35.712Z,102100.51
2018-09-29T12:25:05.817Z,102100.10
2018-09-29T12:27:35.532Z,102101.39
2018-09-29T12:30:06.640Z,102090.79
2018-09-29T12:32:36.277Z,102091.56
2018-09-29T12:35:06.010Z,102085.77
2018-09-29T12:37:35.704Z,102086.95
2018-09-29T12:40:05.655Z,102078.91
2018-09-29T12:42:35.411Z,102073.13
2018-09-29T12:45:05.359Z,102072.52
2018-09-29T12:47:35.041Z,102058.61
2018-09-29T12:50:04.839Z,102057.11
2018-09-29T12:52:34.556Z,102059.23
2018-09-29T12:55:04.192Z,102060.46
2018-09-29T12:57:33.873Z,102053.34
2018-09-29T13:00:03.796Z,102054.95
2018-09-29T13:02:33.413Z,102047.86
2018-09-29T13:05:03.163Z,102037.88
2018-09-29T13:07:32.887Z,102033.66
2018-09-29T13:10:02.601Z,102036.84
2018-09-29T13:12:32.253Z,102032.13
2018-09-29T13:15:01.899Z,102034.88
2018-09-29T13:17:31.511Z,102032.80
2018-09-29T13:20:01.158Z,102042.95
2018-09-29T13:22:30.907Z,102040.00
2018-09-29T13:25:00.623Z,102029.55
2018-09-29T13:27:30.328Z,102032.25
2018-09-29T13:30:00.073Z,102030.95
2018-09-29T13:32:29.752Z,102027.02
2018-09-29T13:34:59.417Z,102026.59
2018-09-29T13:37:29.616Z,102020.02
2018-09-29T13:39:59.278Z,102012.49
2018-09-29T13:42:28.984Z,102004.12
2018-09-29T13:44:58.677Z,102004.91
2018-09-29T13:47:28.360Z,102006.94
2018-09-29T13:49:58.028Z,101998.38
2018-09-29T13:52:27.725Z,101996.40
2018-09-29T13:54:57.343Z,101993.98
2018-09-29T13:57:26.988Z,101982.77
2018-09-29T13:59:56.622Z,101982.09
2018-09-29T14:02:26.348Z,101982.30
2018-09-29T14:04:55.989Z,101975.27
2018-09-29T14:07:25.645Z,101974.92
2018-09-29T14:09:55.268Z,101970.17
2018-09-29T14:12:24.897Z,101962.00
2018-09-29T14:14:54.656Z,101959.92
2018-09-29T14:17:24.336Z,101952.13
2018-09-29T14:19:54.002Z,101949.14
2018-09-29T14:22:23.731Z,101949.23
2018-09-29T14:24:55.115Z,101946.20
2018-09-29T14:27:24.801Z,101946.72
2018-09-29T14:29:54.535Z,101942.80
2018-09-29T14:32:24.369Z,101939.29
2018-09-29T14:34:54.052Z,101937.48
2018-09-29T14:37:23.875Z,101933.51
2018-09-29T14:39:53.554Z,101940.52
2018-09-29T14:42:23.341Z,101936.94
2018-09-29T14:44:53.008Z,101931.92
2018-09-29T14:47:22.691Z,101928.37
2018-09-29T14:49:52.605Z,101923.08
2018-09-29T14:52:22.255Z,101922.13
2018-09-29T14:54:51.973Z,101928.97
2018-09-29T14:57:21.640Z,101927.45
2018-09-29T14:59:51.313Z,101928.17
2018-09-29T15:02:21.063Z,101921.13
2018-09-29T15:04:50.793Z,101922.81
2018-09-29T15:07:20.422Z,101927.55
2018-09-29T15:09:50.104Z,101922.14
2018-09-29T15:12:19.789Z,101919.36
2018-09-29T15:14:49.467Z,101919.68
2018-09-29T15:17:19.106Z,101913.06
2018-09-29T15:19:49.843Z,101916.97
2018-09-29T15:22:19.548Z,101912.58
2018-09-29T15:24:49.294Z,101916.52
2018-09-29T15:27:19.046Z,101913.43
2018-09-29T15:29:48.741Z,101909.44
2018-09-29T15:32:18.395Z,101908.95
2018-09-29T15:34:48.070Z,101896.22
2018-09-29T15:37:17.748Z,101901.88
2018-09-29T15:39:47.459Z,101896.98
2018-09-29T15:42:17.256Z,101899.10
2018-09-29T15:44:46.904Z,101900.39
2018-09-29T15:47:16.590Z,101899.48
2018-09-29T15:49:46.284Z,101903.88
2018-09-29T15:52:15.964Z,101898.59
2018-09-29T15:54:45.620Z,101900.33
2018-09-29T15:57:15.279Z,101894.99
2018-09-29T15:59:44.994Z,101900.12
2018-09-29T16:02:14.686Z,101901.75
2018-09-29T16:04:44.439Z,101892.45
2018-09-29T16:07:14.512Z,101900.56
2018-09-29T16:09:44.279Z,101895.59
2018-09-29T16:12:13.940Z,101906.81
2018-09-29T16:14:43.667Z,101897.44
2018-09-29T16:17:13.340Z,101902.09
2018-09-29T16:19:43.015Z,101907.63
2018-09-29T16:22:12.711Z,101903.95
2018-09-29T16:24:42.477Z,101903.74
2018-09-29T16:27:12.307Z,101903.56
2018-09-29T16:29:41.991Z,101902.89
2018-09-29T16:32:11.682Z,101903.52
2018-09-29T16:34:41.365Z,101910.34
2018-09-29T16:37:11.001Z,101899.63
2018-09-29T16:39:40.668Z,101904.64
2018-09-29T16:42:10.685Z,101899.66
2018-09-29T16:44:40.296Z,101905.09
2018-09-29T16:47:10.021Z,101906.58
2018-09-29T16:49:39.901Z,101909.88
2018-09-29T16:52:09.696Z,101907.52
2018-09-29T16:54:39.339Z,101909.06
2018-09-29T16:57:09.125Z,101907.97
2018-09-29T16:59:39.152Z,101914.38
2018-09-29T17:02:08.795Z,101914.11
2018-09-29T17:04:38.485Z,101917.34
2018-09-29T17:07:08.175Z,101910.55
2018-09-29T17:09:37.924Z,101912.13
2018-09-29T17:12:07.764Z,101917.18
2018-09-29T17:14:37.476Z,101916.19
2018-09-29T17:17:07.702Z,101913.34
2018-09-29T17:19:37.556Z,101918.42
2018-09-29T17:22:07.244Z,101912.96
2018-09-29T17:24:36.884Z,101912.34
2018-09-29T17:27:06.675Z,101913.88
2018-09-29T17:29:36.448Z,101914.97
2018-09-29T17:32:06.120Z,101909.08
2018-09-29T17:34:35.780Z,101911.91
2018-09-29T17:37:05.480Z,101911.70
2018-09-29T17:39:35.180Z,101913.70
2018-09-29T17:42:05.032Z,101911.76
2018-09-29T17:44:34.712Z,101909.83
2018-09-29T17:47:04.436Z,101911.80
2018-09-29T17:49:34.144Z,101915.56
2018-09-29T17:52:03.795Z,101914.16
2018-09-29T17:54:33.459Z,101903.95
2018-09-29T17:57:03.100Z,101906.94
2018-09-29T17:59:32.764Z,101910.69
2018-09-29T18:02:02.590Z,101905.78
2018-09-29T18:04:32.299Z,101904.41
2018-09-29T18:07:01.900Z,101898.72
2018-09-29T18:09:31.592Z,101899.91
2018-09-29T18:12:01.263Z,101898.98
2018-09-29T18:14:30.920Z,101901.06
2018-09-29T18:17:00.616Z,101899.65
2018-09-29T18:19:30.355Z,101900.83
2018-09-29T18:22:00.158Z,101905.11
2018-09-29T18:24:29.861Z,101901.94
2018-09-29T18:26:59.580Z,101906.27
2018-09-29T18:29:29.282Z,101907.52
2018-09-29T18:31:59.016Z,101912.69
2018-09-29T18:34:28.842Z,101906.52
2018-09-29T18:36:58.564Z,101906.52
2018-09-29T18:39:28.278Z,101898.75
2018-09-29T18:41:57.927Z,101901.47
2018-09-29T18:44:27.568Z,101900.63
2018-09-29T18:46:57.272Z,101897.14
2018-09-29T18:49:26.912Z,101893.22
2018-09-29T18:51:56.682Z,101894.00
2018-09-29T18:54:26.624Z,101890.45
2018-09-29T18:56:56.276Z,101884.23
2018-09-29T18:59:25.987Z,101887.13
2018-09-29T19:01:55.656Z,101876.59
2018-09-29T19:04:25.428Z,101878.54
2018-09-29T19:06:55.036Z,101880.63
2018-09-29T19:09:24.906Z,101881.41
2018-09-29T19:11:54.566Z,101878.38
2018-09-29T19:14:24.269Z,101876.71
2018-09-29T19:16:53.911Z,101877.18
2018-09-29T19:19:23.644Z,101879.73
2018-09-29T19:21:53.365Z,101879.31
2018-09-29T19:24:22.992Z,101874.52
2018-09-29T19:26:52.715Z,101869.25
2018-09-29T19:29:22.373Z,101864.09
2018-09-29T19:31:52.020Z,101862.37
2018-09-29T19:34:21.673Z,101859.76
2018-09-29T19:36:51.359Z,101853.66
2018-09-29T19:39:21.023Z,101853.59
2018-09-29T19:41:50.648Z,101856.63
2018-09-29T19:44:20.317Z,101850.87
2018-09-29T19:46:49.996Z,101846.55
2018-09-29T19:49:19.705Z,101853.55
2018-09-29T19:51:49.368Z,101851.77
2018-09-29T19:54:19.004Z,101845.14
2018-09-29T19:56:48.835Z,101848.11
2018-09-29T19:59:18.498Z,101843.67
2018-09-29T20:01:48.301Z,101844.84
2018-09-29T20:04:17.962Z,101837.33
2018-09-29T20:06:47.620Z,101833.30
2018-09-29T20:09:17.290Z,101828.50
2018-09-29T20:11:46.957Z,101828.98
2018-09-29T20:14:16.643Z,101826.89
2018-09-29T20:16:46.357Z,101820.37
2018-09-29T20:19:16.104Z,101820.27
2018-09-29T20:21:45.853Z,101817.14
2018-09-29T20:24:15.630Z,101813.15
2018-09-29T20:26:45.291Z,101817.78
2018-09-29T20:29:14.934Z,101816.25
2018-09-29T20:31:44.679Z,101810.85
2018-09-29T20:34:14.353Z,101808.91
2018-09-29T20:36:44.067Z,101809.07
2018-09-29T20:39:14.324Z,101808.84
2018-09-29T20:41:44.037Z,101805.70
2018-09-29T20:44:13.708Z,101802.96
2018-09-29T20:46:43.353Z,101802.08
2018-09-29T20:49:13.039Z,101805.09
2018-09-29T20:51:42.728Z,101800.30
2018-09-29T20:54:12.382Z,101797.58
2018-09-29T20:56:42.058Z,101800.48
2018-09-29T20:59:11.838Z,101803.38
2018-09-29T21:01:41.466Z,101797.20
2018-09-29T21:04:11.135Z,101793.18
2018-09-29T21:06:40.834Z,101794.31
2018-09-29T21:09:10.488Z,101795.08
2018-09-29T21:11:40.133Z,101794.94
2018-09-29T21:14:10.024Z,101786.95
2018-09-29T21:16:39.682Z,101779.43
2018-09-29T21:19:09.296Z,101779.31
2018-09-29T21:21:39.016Z,101780.20
2018-09-29T21:24:08.715Z,101778.90
2018-09-29T21:26:38.380Z,101773.28
2018-09-29T21:29:08.039Z,101774.05
2018-09-29T21:31:37.684Z,101772.59
2018-09-29T21:34:07.891Z,101767.27
2018-09-29T21:36:37.688Z,101769.88
2018-09-29T21:39:09.641Z,101762.54
2018-09-29T21:41:39.352Z,101760.70
2018-09-29T21:44:09.009Z,101764.91
2018-09-29T21:46:38.670Z,101757.84
2018-09-29T21:49:08.300Z,101752.98
2018-09-29T21:51:37.948Z,101747.72
2018-09-29T21:54:07.580Z,101747.72
2018-09-29T21:56:37.417Z,101731.69
2018-09-29T21:59:07.136Z,101730.86
2018-09-29T22:01:36.805Z,101725.72
2018-09-29T22:04:06.514Z,101717.49
2018-09-29T22:06:36.176Z,101714.83
2018-09-29T22:09:07.895Z,101721.28
2018-09-29T22:11:37.697Z,101718.09
2018-09-29T22:14:07.397Z,101719.80
2018-09-29T22:16:37.079Z,101715.90
2018-09-29T22:19:07.120Z,101721.05
2018-09-29T22:21:36.793Z,101718.80
2018-09-29T22:24:06.479Z,101710.84
2018-09-29T22:26:36.156Z,101714.20
2018-09-29T22:29:06.233Z,101710.12
2018-09-29T22:31:35.962Z,101709.94
2018-09-29T22:34:05.572Z,101705.27
2018-09-29T22:36:35.337Z,101701.12
2018-09-29T22:39:06.461Z,101690.63
2018-09-29T22:41:36.155Z,101690.91
2018-09-29T22:44:05.826Z,101684.29
2018-09-29T22:46:35.516Z,101684.23
2018-09-29T22:49:05.244Z,101688.01
2018-09-29T22:51:34.908Z,101684.02
2018-09-29T22:54:04.691Z,101681.64
2018-09-29T22:56:34.309Z,101683.70
2018-09-29T22:59:04.016Z,101674.48
2018-09-29T23:01:33.675Z,101677.43
2018-09-29T23:04:03.320Z,101678.52
2018-09-29T23:06:32.965Z,101677.91
2018-09-29T23:09:02.751Z,101673.00
2018-09-29T23:11:32.473Z,101671.95
2018-09-29T23:14:02.122Z,101668.28
2018-09-29T23:16:31.765Z,101668.02
2018-09-29T23:19:01.428Z,101670.80
2018-09-29T23:21:31.053Z,101668.90
2018-09-29T23:24:00.908Z,101664.94
2018-09-29T23:26:30.583Z,101664.40
2018-09-29T23:29:00.316Z,101664.72
2018-09-29T23:31:30.016Z,101663.83
2018-09-29T23:33:59.716Z,101667.66
2018-09-29T23:36:29.418Z,101664.04
2018-09-29T23:38:59.077Z,101662.86
2018-09-29T23:41:28.753Z,101656.64
2018-09-29T23:43:58.392Z,101656.85
2018-09-29T23:46:28.025Z,101654.06
2018-09-29T23:48:57.647Z,101649.93
2018-09-29T23:51:27.324Z,101657.52
2018-09-29T23:53:56.988Z,101660.93
2018-09-29T23:56:26.844Z,101649.84
2018-09-29T23:58:56.531Z,101659.27
